sensor_id;sensor_type;location;lat;lon;timestamp;pressure;altitude;pressure_sealevel;temperature;humidity
52032;BME280;38044;45.148;39.604;2023-04-19T00:00:40;100687.41;;;11.06;71.56
52032;BME280;38044;45.148;39.604;2023-04-19T00:03:06;100694.81;;;10.95;71.87
52032;BME280;38044;45.148;39.604;2023-04-19T00:05:32;100645.63;;;10.76;71.65
52032;BME280;38044;45.148;39.604;2023-04-19T00:07:58;100624.31;;;10.60;71.54
52032;BME280;38044;45.148;39.604;2023-04-19T00:10:24;100685.81;;;11.05;71.43
52032;BME280;38044;45.148;39.604;2023-04-19T00:12:51;100660.66;;;10.77;71.82
52032;BME280;38044;45.148;39.604;2023-04-19T00:15:17;100657.09;;;10.81;71.96
52032;BME280;38044;45.148;39.604;2023-04-19T00:17:43;100667.94;;;10.95;71.89
52032;BME280;38044;45.148;39.604;2023-04-19T00:20:09;100704.66;;;11.05;72.00
52032;BME280;38044;45.148;39.604;2023-04-19T00:22:36;100698.47;;;11.04;72.32
52032;BME280;38044;45.148;39.604;2023-04-19T00:25:02;100699.03;;;11.01;72.17
52032;BME280;38044;45.148;39.604;2023-04-19T00:27:28;100587.53;;;10.37;72.09
52032;BME280;38044;45.148;39.604;2023-04-19T00:29:53;100684.56;;;10.97;72.47
52032;BME280;38044;45.148;39.604;2023-04-19T00:32:19;100678.69;;;10.95;72.51
52032;BME280;38044;45.148;39.604;2023-04-19T00:34:45;100685.44;;;10.93;72.34
52032;BME280;38044;45.148;39.604;2023-04-19T00:37:11;100658.63;;;10.88;72.59
52032;BME280;38044;45.148;39.604;2023-04-19T00:39:37;100683.63;;;10.88;72.75
52032;BME280;38044;45.148;39.604;2023-04-19T00:42:03;100502.38;;;9.89;72.45
52032;BME280;38044;45.148;39.604;2023-04-19T00:44:28;100632.19;;;10.76;72.08
52032;BME280;38044;45.148;39.604;2023-04-19T00:46:55;100655.13;;;10.87;72.54
52032;BME280;38044;45.148;39.604;2023-04-19T00:49:22;100636.97;;;10.79;72.52
52032;BME280;38044;45.148;39.604;2023-04-19T00:51:49;100619.97;;;10.65;72.37
52032;BME280;38044;45.148;39.604;2023-04-19T00:54:16;100651.22;;;10.79;72.48
52032;BME280;38044;45.148;39.604;2023-04-19T00:56:43;100630.78;;;10.59;72.59
52032;BME280;38044;45.148;39.604;2023-04-19T00:59:10;100663.28;;;10.82;72.27
52032;BME280;38044;45.148;39.604;2023-04-19T01:01:37;100633.97;;;10.62;72.70
52032;BME280;38044;45.148;39.604;2023-04-19T01:04:04;100649.16;;;10.71;72.62
52032;BME280;38044;45.148;39.604;2023-04-19T01:06:30;100462.00;;;9.57;72.56
52032;BME280;38044;45.148;39.604;2023-04-19T01:08:56;100610.13;;;10.55;72.93
52032;BME280;38044;45.148;39.604;2023-04-19T01:11:23;100632.72;;;10.73;72.71
52032;BME280;38044;45.148;39.604;2023-04-19T01:13:49;100625.75;;;10.72;72.85
52032;BME280;38044;45.148;39.604;2023-04-19T01:16:17;100593.78;;;10.51;73.37
52032;BME280;38044;45.148;39.604;2023-04-19T01:18:43;100453.41;;;9.55;73.26
52032;BME280;38044;45.148;39.604;2023-04-19T01:21:09;100627.50;;;10.63;73.28
52032;BME280;38044;45.148;39.604;2023-04-19T01:23:35;100622.66;;;10.65;73.31
52032;BME280;38044;45.148;39.604;2023-04-19T01:26:04;100517.59;;;9.99;73.27
52032;BME280;38044;45.148;39.604;2023-04-19T01:28:30;100575.03;;;10.46;73.25
52032;BME280;38044;45.148;39.604;2023-04-19T01:30:56;100486.06;;;9.86;73.46
52032;BME280;38044;45.148;39.604;2023-04-19T01:33:22;100529.81;;;10.10;73.31
52032;BME280;38044;45.148;39.604;2023-04-19T01:35:48;100590.88;;;10.48;73.52
52032;BME280;38044;45.148;39.604;2023-04-19T01:38:15;100623.13;;;10.67;73.55
52032;BME280;38044;45.148;39.604;2023-04-19T01:40:41;100583.53;;;10.34;73.74
52032;BME280;38044;45.148;39.604;2023-04-19T01:43:09;100451.22;;;9.81;73.76
52032;BME280;38044;45.148;39.604;2023-04-19T01:45:34;100573.44;;;10.64;74.14
52032;BME280;38044;45.148;39.604;2023-04-19T01:48:01;100487.41;;;10.07;73.98
52032;BME280;38044;45.148;39.604;2023-04-19T01:50:29;100575.63;;;10.62;73.89
52032;BME280;38044;45.148;39.604;2023-04-19T01:52:55;100548.63;;;10.53;73.90
52032;BME280;38044;45.148;39.604;2023-04-19T01:55:21;100579.69;;;10.59;74.14
52032;BME280;38044;45.148;39.604;2023-04-19T01:57:47;100567.56;;;10.62;73.82
52032;BME280;38044;45.148;39.604;2023-04-19T02:00:13;100565.38;;;10.64;73.53
52032;BME280;38044;45.148;39.604;2023-04-19T02:02:40;100592.34;;;10.78;72.84
52032;BME280;38044;45.148;39.604;2023-04-19T02:05:06;100586.16;;;10.58;72.93
52032;BME280;38044;45.148;39.604;2023-04-19T02:07:33;100581.28;;;10.60;72.80
52032;BME280;38044;45.148;39.604;2023-04-19T02:09:59;100440.41;;;9.86;72.59
52032;BME280;38044;45.148;39.604;2023-04-19T02:12:26;100603.53;;;10.85;72.68
52032;BME280;38044;45.148;39.604;2023-04-19T02:14:53;100602.50;;;10.81;nan
52032;BME280;38044;45.148;39.604;2023-04-19T02:17:23;100582.44;;;10.54;73.09
52032;BME280;38044;45.148;39.604;2023-04-19T02:19:49;100460.94;;;9.77;73.17
52032;BME280;38044;45.148;39.604;2023-04-19T02:22:15;100625.97;;;10.75;73.22
52032;BME280;38044;45.148;39.604;2023-04-19T02:24:40;100515.06;;;10.08;72.96
52032;BME280;38044;45.148;39.604;2023-04-19T02:27:06;100591.34;;;10.74;73.51
52032;BME280;38044;45.148;39.604;2023-04-19T02:29:32;100571.97;;;10.34;74.45
52032;BME280;38044;45.148;39.604;2023-04-19T02:31:58;100645.59;;;10.57;75.03
52032;BME280;38044;45.148;39.604;2023-04-19T02:34:26;100654.50;;;10.52;76.41
52032;BME280;38044;45.148;39.604;2023-04-19T02:36:52;100672.41;;;10.38;77.51
52032;BME280;38044;45.148;39.604;2023-04-19T02:39:17;100701.19;;;10.37;77.90
52032;BME280;38044;45.148;39.604;2023-04-19T02:41:43;100706.31;;;10.34;78.49
52032;BME280;38044;45.148;39.604;2023-04-19T02:44:09;100686.00;;;10.23;78.91
52032;BME280;38044;45.148;39.604;2023-04-19T02:46:35;100532.66;;;9.47;79.13
52032;BME280;38044;45.148;39.604;2023-04-19T02:49:01;100694.59;;;10.49;78.77
52032;BME280;38044;45.148;39.604;2023-04-19T02:51:27;100705.00;;;10.55;79.09
52032;BME280;38044;45.148;39.604;2023-04-19T02:53:52;100598.91;;;9.76;79.71
52032;BME280;38044;45.148;39.604;2023-04-19T02:56:18;100687.66;;;10.67;79.26
52032;BME280;38044;45.148;39.604;2023-04-19T02:58:44;100626.25;;;10.55;79.24
52032;BME280;38044;45.148;39.604;2023-04-19T03:01:10;100659.75;;;10.63;79.05
52032;BME280;38044;45.148;39.604;2023-04-19T03:03:36;100563.75;;;10.01;80.27
52032;BME280;38044;45.148;39.604;2023-04-19T03:06:02;100613.69;;;10.50;79.79
52032;BME280;38044;45.148;39.604;2023-04-19T03:08:28;100601.84;;;10.51;79.66
52032;BME280;38044;45.148;39.604;2023-04-19T03:10:53;100618.56;;;10.67;79.32
52032;BME280;38044;45.148;39.604;2023-04-19T03:13:19;100605.69;;;10.64;79.88
52032;BME280;38044;45.148;39.604;2023-04-19T03:15:46;100588.94;;;10.53;79.93
52032;BME280;38044;45.148;39.604;2023-04-19T03:18:12;100531.28;;;10.22;80.40
52032;BME280;38044;45.148;39.604;2023-04-19T03:20:38;100586.81;;;10.50;80.80
52032;BME280;38044;45.148;39.604;2023-04-19T03:23:04;100594.38;;;10.48;80.72
52032;BME280;38044;45.148;39.604;2023-04-19T03:25:30;100416.78;;;9.45;81.04
52032;BME280;38044;45.148;39.604;2023-04-19T03:28:00;100575.03;;;10.46;81.03
52032;BME280;38044;45.148;39.604;2023-04-19T03:30:26;100586.00;;;10.50;80.92
52032;BME280;38044;45.148;39.604;2023-04-19T03:32:51;100558.03;;;10.32;80.86
52032;BME280;38044;45.148;39.604;2023-04-19T03:35:17;100439.16;;;9.59;80.74
52032;BME280;38044;45.148;39.604;2023-04-19T03:37:43;100546.56;;;10.45;80.29
52032;BME280;38044;45.148;39.604;2023-04-19T03:40:09;100584.91;;;10.70;80.04
52032;BME280;38044;45.148;39.604;2023-04-19T03:42:35;100577.81;;;10.79;79.63
52032;BME280;38044;45.148;39.604;2023-04-19T03:45:01;100573.44;;;10.83;79.57
52032;BME280;38044;45.148;39.604;2023-04-19T03:47:27;100419.00;;;9.81;79.07
52032;BME280;38044;45.148;39.604;2023-04-19T03:49:52;100462.50;;;10.21;79.29
52032;BME280;38044;45.148;39.604;2023-04-19T03:52:18;100528.41;;;10.56;78.70
52032;BME280;38044;45.148;39.604;2023-04-19T03:54:44;100541.56;;;10.76;78.67
52032;BME280;38044;45.148;39.604;2023-04-19T03:57:11;100552.00;;;10.78;78.47
52032;BME280;38044;45.148;39.604;2023-04-19T03:59:39;100549.69;;;10.71;78.13
52032;BME280;38044;45.148;39.604;2023-04-19T04:02:05;100551.06;;;10.69;77.81
52032;BME280;38044;45.148;39.604;2023-04-19T04:04:31;100539.31;;;10.65;77.39
52032;BME280;38044;45.148;39.604;2023-04-19T04:06:57;100508.94;;;10.45;77.05
52032;BME280;38044;45.148;39.604;2023-04-19T04:09:23;100555.34;;;10.70;77.56
52032;BME280;38044;45.148;39.604;2023-04-19T04:11:49;100547.41;;;10.78;77.18
52032;BME280;38044;45.148;39.604;2023-04-19T04:14:14;100551.28;;;10.72;77.01
52032;BME280;38044;45.148;39.604;2023-04-19T04:16:40;100570.75;;;10.83;77.00
52032;BME280;38044;45.148;39.604;2023-04-19T04:19:06;100545.38;;;10.89;76.69
52032;BME280;38044;45.148;39.604;2023-04-19T04:21:32;100542.69;;;10.89;76.74
52032;BME280;38044;45.148;39.604;2023-04-19T04:23:57;100422.13;;;10.26;76.67
52032;BME280;38044;45.148;39.604;2023-04-19T04:26:26;100530.69;;;11.00;76.66
52032;BME280;38044;45.148;39.604;2023-04-19T04:28:55;100507.56;;;10.99;76.38
52032;BME280;38044;45.148;39.604;2023-04-19T04:31:22;100559.25;;;11.29;75.83
52032;BME280;38044;45.148;39.604;2023-04-19T04:33:47;100568.47;;;11.42;75.85
52032;BME280;38044;45.148;39.604;2023-04-19T04:36:13;100577.34;;;11.42;75.56
52032;BME280;38044;45.148;39.604;2023-04-19T04:38:39;100423.75;;;10.46;75.82
52032;BME280;38044;45.148;39.604;2023-04-19T04:41:05;100547.66;;;11.47;75.85
52032;BME280;38044;45.148;39.604;2023-04-19T04:43:31;100564.16;;;12.01;75.37
52032;BME280;38044;45.148;39.604;2023-04-19T04:45:58;100551.38;;;12.07;74.54
52032;BME280;38044;45.148;39.604;2023-04-19T04:48:23;100562.66;;;12.09;74.66
52032;BME280;38044;45.148;39.604;2023-04-19T04:50:49;100527.81;;;11.85;74.21
52032;BME280;38044;45.148;39.604;2023-04-19T04:53:15;100574.50;;;12.22;74.00
52032;BME280;38044;45.148;39.604;2023-04-19T04:55:41;100549.78;;;12.06;73.46
52032;BME280;38044;45.148;39.604;2023-04-19T04:58:07;100561.16;;;12.03;72.93
52032;BME280;38044;45.148;39.604;2023-04-19T05:00:33;100594.91;;;12.14;73.65
52032;BME280;38044;45.148;39.604;2023-04-19T05:02:59;100566.41;;;11.80;74.01
52032;BME280;38044;45.148;39.604;2023-04-19T05:05:25;100562.63;;;11.81;74.00
52032;BME280;38044;45.148;39.604;2023-04-19T05:07:51;100560.63;;;11.73;74.42
52032;BME280;38044;45.148;39.604;2023-04-19T05:10:16;100607.66;;;11.94;74.92
52032;BME280;38044;45.148;39.604;2023-04-19T05:12:42;100518.91;;;11.29;74.71
52032;BME280;38044;45.148;39.604;2023-04-19T05:15:08;100535.88;;;11.43;74.79
52032;BME280;38044;45.148;39.604;2023-04-19T05:17:36;100655.38;;;12.08;74.76
52032;BME280;38044;45.148;39.604;2023-04-19T05:20:02;100633.50;;;12.09;74.68
52032;BME280;38044;45.148;39.604;2023-04-19T05:22:29;100486.91;;;11.27;74.96
52032;BME280;38044;45.148;39.604;2023-04-19T05:24:55;100598.06;;;12.16;75.08
52032;BME280;38044;45.148;39.604;2023-04-19T05:27:21;100575.63;;;12.21;75.03
52032;BME280;38044;45.148;39.604;2023-04-19T05:29:46;100574.72;;;12.11;75.40
52032;BME280;38044;45.148;39.604;2023-04-19T05:32:12;100528.13;;;11.83;75.20
52032;BME280;38044;45.148;39.604;2023-04-19T05:34:38;100652.47;;;12.18;75.54
52032;BME280;38044;45.148;39.604;2023-04-19T05:37:04;100608.56;;;12.04;75.89
52032;BME280;38044;45.148;39.604;2023-04-19T05:39:30;100514.19;;;11.21;76.55
52032;BME280;38044;45.148;39.604;2023-04-19T05:41:55;100634.63;;;12.22;77.18
52032;BME280;38044;45.148;39.604;2023-04-19T05:44:21;100532.41;;;11.57;77.27
52032;BME280;38044;45.148;39.604;2023-04-19T05:46:47;100583.91;;;11.97;76.78
52032;BME280;38044;45.148;39.604;2023-04-19T05:49:13;100529.81;;;11.65;76.99
52032;BME280;38044;45.148;39.604;2023-04-19T05:51:38;100655.53;;;12.53;76.98
52032;BME280;38044;45.148;39.604;2023-04-19T05:54:04;100637.59;;;12.48;76.14
52032;BME280;38044;45.148;39.604;2023-04-19T05:56:30;100646.75;;;12.61;75.83
52032;BME280;38044;45.148;39.604;2023-04-19T05:58:56;100697.59;;;12.68;75.67
52032;BME280;38044;45.148;39.604;2023-04-19T06:01:23;100680.72;;;12.34;76.29
52032;BME280;38044;45.148;39.604;2023-04-19T06:03:48;100630.91;;;12.04;76.66
52032;BME280;38044;45.148;39.604;2023-04-19T06:06:18;100615.19;;;11.79;77.55
52032;BME280;38044;45.148;39.604;2023-04-19T06:08:44;100520.16;;;11.18;78.71
52032;BME280;38044;45.148;39.604;2023-04-19T06:11:10;100694.91;;;12.26;79.87
52032;BME280;38044;45.148;39.604;2023-04-19T06:13:36;100709.28;;;12.35;79.42
52032;BME280;38044;45.148;39.604;2023-04-19T06:16:02;100689.00;;;12.24;80.27
52032;BME280;38044;45.148;39.604;2023-04-19T06:18:28;100688.00;;;12.20;80.81
52032;BME280;38044;45.148;39.604;2023-04-19T06:20:54;100702.78;;;12.23;80.84
52032;BME280;38044;45.148;39.604;2023-04-19T06:23:20;100656.97;;;12.09;80.11
52032;BME280;38044;45.148;39.604;2023-04-19T06:25:46;100709.19;;;12.40;79.57
52032;BME280;38044;45.148;39.604;2023-04-19T06:28:14;100658.47;;;12.15;80.16
52032;BME280;38044;45.148;39.604;2023-04-19T06:30:40;100625.31;;;11.87;81.32
52032;BME280;38044;45.148;39.604;2023-04-19T06:33:06;100658.16;;;12.16;80.76
52032;BME280;38044;45.148;39.604;2023-04-19T06:35:32;100665.34;;;12.21;80.59
52032;BME280;38044;45.148;39.604;2023-04-19T06:37:58;100609.00;;;11.78;80.87
52032;BME280;38044;45.148;39.604;2023-04-19T06:40:25;100661.34;;;12.18;80.74
52032;BME280;38044;45.148;39.604;2023-04-19T06:42:53;100670.25;;;12.19;81.41
52032;BME280;38044;45.148;39.604;2023-04-19T06:45:19;100657.75;;;12.23;81.24
52032;BME280;38044;45.148;39.604;2023-04-19T06:47:44;100669.25;;;12.43;81.57
52032;BME280;38044;45.148;39.604;2023-04-19T06:50:10;100643.38;;;12.42;80.93
52032;BME280;38044;45.148;39.604;2023-04-19T06:52:37;100532.09;;;11.72;80.89
52032;BME280;38044;45.148;39.604;2023-04-19T06:55:04;100655.34;;;12.63;80.83
52032;BME280;38044;45.148;39.604;2023-04-19T06:57:30;100665.31;;;12.76;80.60
52032;BME280;38044;45.148;39.604;2023-04-19T06:59:56;100536.63;;;11.90;80.82
52032;BME280;38044;45.148;39.604;2023-04-19T07:02:23;100643.97;;;12.52;82.07
52032;BME280;38044;45.148;39.604;2023-04-19T07:04:48;100637.41;;;12.31;82.75
52032;BME280;38044;45.148;39.604;2023-04-19T07:07:14;100624.81;;;12.12;83.75
52032;BME280;38044;45.148;39.604;2023-04-19T07:09:40;100551.34;;;11.52;84.81
52032;BME280;38044;45.148;39.604;2023-04-19T07:12:06;100483.97;;;10.96;85.32
52032;BME280;38044;45.148;39.604;2023-04-19T07:14:32;100625.47;;;11.77;86.21
52032;BME280;38044;45.148;39.604;2023-04-19T07:16:58;100618.47;;;11.76;86.62
52032;BME280;38044;45.148;39.604;2023-04-19T07:19:24;100596.78;;;11.53;86.95
52032;BME280;38044;45.148;39.604;2023-04-19T07:21:50;100606.63;;;11.77;87.17
52032;BME280;38044;45.148;39.604;2023-04-19T07:24:16;100555.31;;;11.40;87.24
52032;BME280;38044;45.148;39.604;2023-04-19T07:26:42;100567.47;;;11.52;87.47
52032;BME280;38044;45.148;39.604;2023-04-19T07:29:08;100461.41;;;10.92;87.49
52032;BME280;38044;45.148;39.604;2023-04-19T07:31:36;100467.03;;;11.10;87.82
52032;BME280;38044;45.148;39.604;2023-04-19T07:34:02;100602.09;;;12.05;87.62
52032;BME280;38044;45.148;39.604;2023-04-19T07:36:27;100601.88;;;12.15;87.42
52032;BME280;38044;45.148;39.604;2023-04-19T07:38:54;100602.88;;;12.19;87.65
52032;BME280;38044;45.148;39.604;2023-04-19T07:41:19;100619.44;;;12.26;87.80
52032;BME280;38044;45.148;39.604;2023-04-19T07:43:45;100591.47;;;12.36;87.89
52032;BME280;38044;45.148;39.604;2023-04-19T07:46:12;100596.84;;;12.50;87.65
52032;BME280;38044;45.148;39.604;2023-04-19T07:48:40;100537.00;;;12.25;87.28
52032;BME280;38044;45.148;39.604;2023-04-19T07:51:16;100557.84;;;12.70;87.56
52032;BME280;38044;45.148;39.604;2023-04-19T07:53:42;100456.78;;;12.08;87.03
52032;BME280;38044;45.148;39.604;2023-04-19T07:56:09;100589.50;;;13.00;87.03
52032;BME280;38044;45.148;39.604;2023-04-19T07:58:36;100574.78;;;13.06;86.76
52032;BME280;38044;45.148;39.604;2023-04-19T08:01:03;100526.16;;;12.98;86.60
52032;BME280;38044;45.148;39.604;2023-04-19T08:03:30;100513.50;;;13.07;86.41
52032;BME280;38044;45.148;39.604;2023-04-19T08:05:56;100414.22;;;12.64;86.15
52032;BME280;38044;45.148;39.604;2023-04-19T08:08:22;100573.97;;;13.82;85.59
52032;BME280;38044;45.148;39.604;2023-04-19T08:10:49;100563.09;;;14.22;85.01
52032;BME280;38044;45.148;39.604;2023-04-19T08:13:15;100560.47;;;14.48;83.79
52032;BME280;38044;45.148;39.604;2023-04-19T08:15:41;100554.09;;;14.79;84.06
52032;BME280;38044;45.148;39.604;2023-04-19T08:18:07;100520.34;;;14.85;83.71
52032;BME280;38044;45.148;39.604;2023-04-19T08:20:32;100559.44;;;15.48;83.23
52032;BME280;38044;45.148;39.604;2023-04-19T08:22:59;100566.72;;;16.04;83.84
52032;BME280;38044;45.148;39.604;2023-04-19T08:25:25;100544.72;;;16.47;82.73
52032;BME280;38044;45.148;39.604;2023-04-19T08:27:55;100446.47;;;16.41;81.06
52032;BME280;38044;45.148;39.604;2023-04-19T08:30:23;100563.69;;;17.43;79.41
52032;BME280;38044;45.148;39.604;2023-04-19T08:32:49;100576.38;;;17.51;77.28
52032;BME280;38044;45.148;39.604;2023-04-19T08:35:15;100433.91;;;16.70;76.57
52032;BME280;38044;45.148;39.604;2023-04-19T08:37:41;100578.13;;;18.05;75.68
52032;BME280;38044;45.148;39.604;2023-04-19T08:40:07;100588.47;;;18.64;72.16
52032;BME280;38044;45.148;39.604;2023-04-19T08:42:34;100437.72;;;18.41;70.18
52032;BME280;38044;45.148;39.604;2023-04-19T08:45:01;100546.81;;;19.64;68.58
52032;BME280;38044;45.148;39.604;2023-04-19T08:47:34;100588.03;;;19.63;66.06
52032;BME280;38044;45.148;39.604;2023-04-19T08:50:04;100481.19;;;19.57;65.81
52032;BME280;38044;45.148;39.604;2023-04-19T08:52:35;100589.66;;;20.82;62.20
52032;BME280;38044;45.148;39.604;2023-04-19T08:55:05;100547.94;;;21.27;62.17
52032;BME280;38044;45.148;39.604;2023-04-19T08:57:32;100552.41;;;21.81;56.92
52032;BME280;38044;45.148;39.604;2023-04-19T09:00:14;100484.84;;;21.59;56.31
52032;BME280;38044;45.148;39.604;2023-04-19T09:02:44;100593.53;;;21.89;57.21
52032;BME280;38044;45.148;39.604;2023-04-19T09:05:12;100586.22;;;22.19;56.70
52032;BME280;38044;45.148;39.604;2023-04-19T09:07:38;100541.97;;;21.91;56.61
52032;BME280;38044;45.148;39.604;2023-04-19T09:10:08;100519.41;;;22.24;55.31
52032;BME280;38044;45.148;39.604;2023-04-19T09:12:35;100499.59;;;22.34;55.18
52032;BME280;38044;45.148;39.604;2023-04-19T09:15:03;100577.94;;;23.06;54.46
52032;BME280;38044;45.148;39.604;2023-04-19T09:17:30;100474.00;;;21.93;54.89
52032;BME280;38044;45.148;39.604;2023-04-19T09:19:56;100568.00;;;22.31;55.18
52032;BME280;38044;45.148;39.604;2023-04-19T09:22:22;100482.44;;;21.80;55.52
52032;BME280;38044;45.148;39.604;2023-04-19T09:24:49;100574.00;;;22.13;55.49
52032;BME280;38044;45.148;39.604;2023-04-19T09:27:26;100489.72;;;21.46;56.83
52032;BME280;38044;45.148;39.604;2023-04-19T09:29:53;100580.19;;;21.84;56.17
52032;BME280;38044;45.148;39.604;2023-04-19T09:32:20;100561.78;;;21.80;56.09
52032;BME280;38044;45.148;39.604;2023-04-19T09:35:01;100569.25;;;21.84;56.93
52032;BME280;38044;45.148;39.604;2023-04-19T09:37:27;100529.72;;;21.12;58.11
52032;BME280;38044;45.148;39.604;2023-04-19T09:39:53;100560.47;;;21.28;59.65
52032;BME280;38044;45.148;39.604;2023-04-19T09:42:19;100524.59;;;21.53;58.95
52032;BME280;38044;45.148;39.604;2023-04-19T09:44:57;100556.00;;;22.12;57.25
52032;BME280;38044;45.148;39.604;2023-04-19T09:47:25;100519.94;;;22.33;57.28
52032;BME280;38044;45.148;39.604;2023-04-19T09:50:05;100526.69;;;23.10;55.62
52032;BME280;38044;45.148;39.604;2023-04-19T09:52:32;100451.94;;;22.76;55.58
52032;BME280;38044;45.148;39.604;2023-04-19T09:55:05;100536.72;;;23.36;56.02
52032;BME280;38044;45.148;39.604;2023-04-19T09:57:32;100536.88;;;23.54;55.58
52032;BME280;38044;45.148;39.604;2023-04-19T09:59:59;100514.13;;;23.50;55.48
52032;BME280;38044;45.148;39.604;2023-04-19T10:02:30;100430.78;;;23.17;54.26
52032;BME280;38044;45.148;39.604;2023-04-19T10:04:57;100538.59;;;23.70;54.01
52032;BME280;38044;45.148;39.604;2023-04-19T10:07:24;100476.88;;;23.01;54.42
52032;BME280;38044;45.148;39.604;2023-04-19T10:09:54;100459.13;;;22.91;54.47
52032;BME280;38044;45.148;39.604;2023-04-19T10:12:23;100531.91;;;22.89;55.93
52032;BME280;38044;45.148;39.604;2023-04-19T10:14:50;100511.50;;;22.49;57.08
52032;BME280;38044;45.148;39.604;2023-04-19T10:17:17;100540.78;;;22.75;55.93
52032;BME280;38044;45.148;39.604;2023-04-19T10:19:44;100543.25;;;22.84;55.52
52032;BME280;38044;45.148;39.604;2023-04-19T10:22:11;100536.34;;;22.97;53.40
52032;BME280;38044;45.148;39.604;2023-04-19T10:24:38;100533.56;;;22.60;54.62
52032;BME280;38044;45.148;39.604;2023-04-19T10:27:11;100524.94;;;22.27;55.34
52032;BME280;38044;45.148;39.604;2023-04-19T10:29:59;100519.88;;;22.30;56.31
52032;BME280;38044;45.148;39.604;2023-04-19T10:32:29;100416.16;;;21.38;57.16
52032;BME280;38044;45.148;39.604;2023-04-19T10:35:04;100533.84;;;22.21;57.01
52032;BME280;38044;45.148;39.604;2023-04-19T10:37:32;100534.72;;;22.29;55.85
52032;BME280;38044;45.148;39.604;2023-04-19T10:39:58;100524.31;;;22.38;55.85
52032;BME280;38044;45.148;39.604;2023-04-19T10:42:23;100505.53;;;22.40;55.95
52032;BME280;38044;45.148;39.604;2023-04-19T10:47:53;100423.31;;;22.06;54.66
52032;BME280;38044;45.148;39.604;2023-04-19T10:50:22;100422.09;;;22.30;54.07
52032;BME280;38044;45.148;39.604;2023-04-19T10:52:48;100378.47;;;21.80;54.66
52032;BME280;38044;45.148;39.604;2023-04-19T10:55:15;100528.44;;;22.92;54.46
52032;BME280;38044;45.148;39.604;2023-04-19T10:58:05;100543.19;;;23.14;54.76
52032;BME280;38044;45.148;39.604;2023-04-19T11:00:31;100527.38;;;22.66;55.80
52032;BME280;38044;45.148;39.604;2023-04-19T11:06:17;100551.75;;;22.75;56.66
52032;BME280;38044;45.148;39.604;2023-04-19T11:08:44;100416.44;;;21.86;56.22
52032;BME280;38044;45.148;39.604;2023-04-19T11:11:12;100445.97;;;22.03;56.95
52032;BME280;38044;45.148;39.604;2023-04-19T11:13:41;100538.34;;;22.66;57.17
52032;BME280;38044;45.148;39.604;2023-04-19T11:16:08;100517.63;;;22.35;56.89
52032;BME280;38044;45.148;39.604;2023-04-19T11:18:34;100534.69;;;22.55;57.16
52032;BME280;38044;45.148;39.604;2023-04-19T11:21:00;100544.06;;;22.88;57.54
52032;BME280;38044;45.148;39.604;2023-04-19T11:23:26;100524.75;;;22.77;57.85
52032;BME280;38044;45.148;39.604;2023-04-19T11:25:52;100427.09;;;22.21;55.35
52032;BME280;38044;45.148;39.604;2023-04-19T11:28:18;100504.63;;;22.62;55.11
52032;BME280;38044;45.148;39.604;2023-04-19T11:30:46;100546.59;;;22.70;55.21
52032;BME280;38044;45.148;39.604;2023-04-19T11:33:12;100558.22;;;22.30;55.76
52032;BME280;38044;45.148;39.604;2023-04-19T11:35:38;100471.69;;;21.42;56.90
52032;BME280;38044;45.148;39.604;2023-04-19T11:38:06;100542.16;;;21.52;55.28
52032;BME280;38044;45.148;39.604;2023-04-19T11:40:32;100550.19;;;21.22;56.21
52032;BME280;38044;45.148;39.604;2023-04-19T11:42:59;100448.84;;;20.26;57.38
52032;BME280;38044;45.148;39.604;2023-04-19T11:45:27;100572.97;;;20.87;59.36
52032;BME280;38044;45.148;39.604;2023-04-19T11:47:55;100539.22;;;20.40;61.59
52032;BME280;38044;45.148;39.604;2023-04-19T11:50:43;100524.06;;;20.08;63.59
52032;BME280;38044;45.148;39.604;2023-04-19T11:53:17;100390.84;;;19.07;64.62
52032;BME280;38044;45.148;39.604;2023-04-19T11:55:53;100506.00;;;20.19;63.75
52032;BME280;38044;45.148;39.604;2023-04-19T11:58:40;100369.06;;;19.74;61.91
52032;BME280;38044;45.148;39.604;2023-04-19T12:01:17;100458.88;;;20.80;60.52
52032;BME280;38044;45.148;39.604;2023-04-19T12:03:48;100361.06;;;20.43;58.73
52032;BME280;38044;45.148;39.604;2023-04-19T12:06:22;100473.13;;;21.35;57.67
52032;BME280;38044;45.148;39.604;2023-04-19T12:08:50;100503.03;;;21.48;57.22
52032;BME280;38044;45.148;39.604;2023-04-19T12:11:22;100451.19;;;21.32;56.69
52032;BME280;38044;45.148;39.604;2023-04-19T12:14:09;100500.84;;;21.84;56.69
52032;BME280;38044;45.148;39.604;2023-04-19T12:16:36;100487.91;;;21.80;55.42
52032;BME280;38044;45.148;39.604;2023-04-19T12:19:17;100487.84;;;21.77;56.02
52032;BME280;38044;45.148;39.604;2023-04-19T12:21:45;100446.38;;;21.25;57.18
52032;BME280;38044;45.148;39.604;2023-04-19T12:24:14;100453.28;;;21.39;57.73
52032;BME280;38044;45.148;39.604;2023-04-19T12:27:12;100483.06;;;21.70;56.92
52032;BME280;38044;45.148;39.604;2023-04-19T12:29:45;100382.53;;;20.87;56.75
52032;BME280;38044;45.148;39.604;2023-04-19T12:32:11;100349.44;;;20.69;56.33
52032;BME280;38044;45.148;39.604;2023-04-19T12:34:37;100473.56;;;21.38;57.15
52032;BME280;38044;45.148;39.604;2023-04-19T12:37:03;100481.03;;;21.41;57.51
52032;BME280;38044;45.148;39.604;2023-04-19T12:39:29;100470.72;;;21.34;57.44
52032;BME280;38044;45.148;39.604;2023-04-19T12:41:55;100454.19;;;21.23;59.21
52032;BME280;38044;45.148;39.604;2023-04-19T12:44:21;100446.84;;;21.31;59.55
52032;BME280;38044;45.148;39.604;2023-04-19T12:46:48;100432.41;;;21.30;57.85